Terminal Aerodrome Forecast
Issued by NWS Spokane, WA

Home | Current Version | Previous Version | Text Only | Print | Product List | Glossary On
Versions: 1 2 3 4 5 6 7 8 9 10 11 12 13 14 15 16 17 18 19 20 21 22 23 24 25 26 27 28 29 30 31 32 33 34 35 36 37 38
000
FTUS46 KOTX 111138
TAFGEG
TAF
KGEG 111138Z 1112/1212 05004KT P6SM OVC006
      TEMPO 1114/1117 5SM BR BKN003
     FM111800 03004KT P6SM OVC010
     FM121000 02003KT 2SM BR OVC004=

USA.gov is the U.S. government's official web portal to all federal, state and local government web resources and services.